Slave Lake Airport
CYZH : now visible

Airfield :











YOU CAN JOIN US ON...

 
LOGIN :

Register | Disclaimer

   EN    FR    IT 

 









Legend :    VFR   Marginal VFR   IFR   Intensive IFR   Very Intensive IFR
Visi :
Ceiling :
>= 8 km
>= 3000ft
5 to 8 km
1000 to 3000 ft
1500m to 5 km
500 to 1000 ft
800 to 1500m
200 to 500 ft
< 800m
< 200 ft
Symbols :   Thunderstorms  Fog  Heavy snow  Heavy precipitations  Wind > 20 kt







- Airport Elevation : 1912 ft
- IATA code : YZH


CYZH - Slave Lake

CURRENT METAR :
  • 201000Z AUTO 25007KT 9SM OVC055 12/08 A2968 RMK SLP058 DENSITY ALT 2200FT

EXPIRED METARs :
  • 200900Z AUTO 26005KT 9SM BKN140 11/09 A2969 RMK SLP060 DENSITY ALT 2200FT
  • 200800Z AUTO 00000KT 9SM FEW055 OVC072 12/10 A2969 RMK SLP062 DENSITY ALT 2200FT

TAF TAF CYZH
Valid from the 20 at 07:00 until the 20 at 19:00 UTC


200638Z 2007/2019 VRB03KT P6SM FEW040 BKN080
TEMPO 2007/2012 P6SM -SHRA BKN040 OVC080
BECMG 2007/2009 26012KT
FM201200 27015KT P6SM BKN008 OVC030
TEMPO 2012/2017 P6SM -SHRA BKN012 OVC030
FM201700 29018G28KT P6SM BKN020
TEMPO 2017/2019 BKN025 RMK FCST BASED ON AUTO OBS. NXT FCST BY 201300Z
No reported NOTAMs for that airfield.



MET'MAP, your aeronautical weather chart ! - Copyright ORBIFLY December 2007 - Disclaimer

ORBIFLY MET'MAP TEAM :

Programming & Development : Alexandra Zaïnal
Concept & Development : Baudouin d'Aumeries
Co-Development & Prog : Marc-Olivier Méhu
Technical & hardware support : Manuel Goepfert

Contact : metmap@orbifly.com




SOURCES & CREDITS :

   NOAA       Earth
Advisory